Time;durP1;ratioP1;P1;durP2;ratioP2;P2;SDS_P1;SDS_P2;PMS_P1;PMS_P2;Temp;Humidity;BMP_temperature;BMP_pressure;BME280_temperature;BME280_humidity;BME280_pressure;Samples;Min_cycle;Max_cycle;Signal;HPM_P1;HPM_P2
2022/10/26 00:01:39;;;;;;;5.13;2.37;;;;;;;12.31;84.29;99764.25;5021904;28;20462;-87
2022/10/26 00:04:05;;;;;;;6.83;1.43;;;;;;;12.59;82.93;99763.91;5019184;28;20262;-86
2022/10/26 00:06:30;;;;;;;5.97;1.48;;;;;;;12.81;82.08;99763.53;5020895;28;20271;-84
2022/10/26 00:08:56;;;;;;;3.90;1.45;;;;;;;12.87;82.12;99761.63;5021886;28;20030;-89
2022/10/26 00:11:22;;;;;;;4.55;1.50;;;;;;;13.07;81.16;99766.19;5019491;28;20030;-89
2022/10/26 00:13:48;;;;;;;5.32;1.15;;;;;;;13.02;81.44;99757.97;5023012;28;20036;-88
2022/10/26 00:16:17;;;;;;;5.05;1.65;;;;;;;12.96;81.54;99754.47;5021121;28;20479;-85
2022/10/26 00:18:43;;;;;;;6.45;1.90;;;;;;;13.08;81.45;99747.81;5002956;28;20037;-88
2022/10/26 00:21:09;;;;;;;8.82;2.08;;;;;;;12.92;81.75;99747.06;5020438;28;20037;-87
2022/10/26 00:23:35;;;;;;;8.38;2.10;;;;;;;12.93;81.83;99755.03;5020671;28;20467;-87
2022/10/26 00:26:01;;;;;;;9.55;2.75;;;;;;;12.71;82.53;99747.19;5019236;28;20025;-84
2022/10/26 00:28:26;;;;;;;5.53;1.80;;;;;;;12.83;82.25;99755.06;5021332;28;20028;-88
2022/10/26 00:30:52;;;;;;;6.25;2.47;;;;;;;12.61;82.97;99751.59;5020483;28;20038;-88
2022/10/26 00:33:17;;;;;;;4.78;1.60;;;;;;;12.83;82.76;99757.81;5019063;28;20069;-87
2022/10/26 00:35:47;;;;;;;3.03;1.45;;;;;;;12.92;82.37;99742.44;5021572;28;20029;-87
2022/10/26 00:38:12;;;;;;;7.07;1.90;;;;;;;13.10;81.71;99748.34;5020922;28;20040;-89
2022/10/26 00:40:37;;;;;;;7.15;2.00;;;;;;;13.20;81.67;99744.75;5019848;28;20033;-85
2022/10/26 00:43:03;;;;;;;3.25;1.20;;;;;;;13.17;81.62;99742.59;5022843;28;20025;-89
2022/10/26 00:45:29;;;;;;;2.63;1.10;;;;;;;13.18;81.74;99749.72;5019375;28;20033;-87
2022/10/26 00:48:01;;;;;;;8.27;1.80;;;;;;;13.37;81.36;99755.31;5019685;28;20030;-88
2022/10/26 00:50:33;;;;;;;2.88;1.08;;;;;;;13.38;81.14;99747.94;5021696;28;20021;-89
2022/10/26 00:53:02;;;;;;;5.30;1.05;;;;;;;13.52;80.25;99748.13;5020631;28;20041;-85
2022/10/26 00:55:31;;;;;;;5.13;0.95;;;;;;;13.53;80.09;99749.72;5019229;28;20268;-85
2022/10/26 00:57:58;;;;;;;9.55;1.52;;;;;;;13.42;80.93;99747.06;5019014;28;20532;-85
2022/10/26 01:00:23;;;;;;;8.05;2.17;;;;;;;13.48;81.23;99753.34;5020970;28;20103;-88
2022/10/26 01:02:53;;;;;;;5.18;1.27;;;;;;;13.22;82.34;99755.44;5018994;28;20072;-84
2022/10/26 01:05:18;;;;;;;8.90;2.17;;;;;;;13.57;80.26;99748.09;5018853;28;20052;-85
2022/10/26 01:07:45;;;;;;;4.13;1.08;;;;;;;13.58;80.57;99751.66;5018776;28;20531;-87
2022/10/26 01:10:12;;;;;;;3.92;1.15;;;;;;;13.61;80.07;99740.94;5010503;28;20025;-84
2022/10/26 01:12:38;;;;;;;7.00;2.25;;;;;;;13.63;79.71;99748.88;5019417;28;20029;-84
2022/10/26 01:15:04;;;;;;;7.90;1.23;;;;;;;13.60;80.11;99739.31;5020730;28;20041;-85
2022/10/26 01:17:49;;;;;;;5.28;1.13;;;;;;;13.79;79.79;99730.38;5019681;28;20072;-85
2022/10/26 01:20:52;;;;;;;4.78;1.20;;;;;;;13.71;79.84;99731.81;5021703;28;20475;-87
2022/10/26 01:23:46;;;;;;;4.63;1.67;;;;;;;13.74;79.52;99722.22;5020018;28;20470;-85
2022/10/26 01:26:52;;;;;;;3.38;1.33;;;;;;;13.80;79.42;99723.81;5020381;28;20053;-86
2022/10/26 01:29:35;;;;;;;4.78;1.05;;;;;;;13.86;78.96;99719.09;5014004;28;20052;-84
2022/10/26 01:32:11;;;;;;;4.47;1.48;;;;;;;13.59;80.03;99721.22;5020557;28;20061;-86
2022/10/26 01:34:44;;;;;;;3.63;1.67;;;;;;;13.78;79.52;99720.53;5018776;28;20048;-85
2022/10/26 01:37:21;;;;;;;7.10;1.77;;;;;;;13.77;79.75;99727.94;5019501;28;20204;-87
2022/10/26 01:39:56;;;;;;;7.57;1.38;;;;;;;13.78;79.75;99726.03;5021539;28;20432;-86
2022/10/26 01:42:22;;;;;;;4.68;1.17;;;;;;;13.70;79.94;99715.69;5029399;28;20084;-83
2022/10/26 01:44:56;;;;;;;7.18;1.70;;;;;;;13.48;80.87;99725.97;5029791;28;20254;-89
2022/10/26 01:47:23;;;;;;;4.78;1.25;;;;;;;13.79;79.56;99715.88;5029507;28;20040;-84
2022/10/26 01:49:54;;;;;;;3.30;1.45;;;;;;;13.77;79.77;99716.16;5029454;28;20072;-86
2022/10/26 01:52:20;;;;;;;4.05;1.60;;;;;;;13.69;80.18;99703.09;5029000;28;20021;-85
2022/10/26 01:54:46;;;;;;;5.57;2.20;;;;;;;13.65;80.36;99713.78;5029035;28;20109;-87
2022/10/26 01:57:16;;;;;;;4.88;1.35;;;;;;;13.94;79.33;99714.91;5029614;28;20037;-83
2022/10/26 01:59:44;;;;;;;5.28;1.05;;;;;;;13.81;79.86;99697.25;5033133;28;20542;-85
2022/10/26 02:02:35;;;;;;;11.77;1.80;;;;;;;13.84;79.96;99700.22;5032539;28;20037;-86
2022/10/26 02:05:29;;;;;;;8.02;1.92;;;;;;;13.79;79.30;99693.97;5032858;28;20042;-84
2022/10/26 02:08:06;;;;;;;7.18;1.33;;;;;;;13.78;79.85;99693.13;5032754;28;20099;-88
2022/10/26 02:11:13;;;;;;;5.22;2.03;;;;;;;13.78;80.17;99693.13;5033047;28;20042;-87
2022/10/26 02:13:50;;;;;;;2.30;0.80;;;;;;;13.59;81.10;99691.09;5032533;28;20129;-86
2022/10/26 02:16:22;;;;;;;7.97;1.48;;;;;;;13.91;79.56;99685.34;5033067;28;20038;-87
2022/10/26 02:19:01;;;;;;;7.85;1.35;;;;;;;13.77;80.09;99683.28;5032834;28;20121;-88
2022/10/26 02:21:40;;;;;;;7.18;1.45;;;;;;;13.78;80.64;99673.97;5032403;28;20530;-86
2022/10/26 02:24:09;;;;;;;8.73;1.95;;;;;;;13.83;79.96;99678.59;5014751;28;20037;-84
2022/10/26 02:26:36;;;;;;;4.60;1.23;;;;;;;13.83;80.17;99667.63;5032489;28;20029;-88
2022/10/26 02:29:05;;;;;;;3.65;1.83;;;;;;;13.88;80.13;99668.38;5033070;28;20451;-85
2022/10/26 02:31:32;;;;;;;6.85;1.65;;;;;;;13.99;79.89;99671.03;5032438;28;20029;-86
2022/10/26 02:34:03;;;;;;;10.32;2.22;;;;;;;13.94;80.21;99677.38;5031989;28;20041;-84
2022/10/26 02:36:33;;;;;;;8.35;2.67;;;;;;;13.87;80.21;99666.75;5032592;28;20042;-85
2022/10/26 02:39:02;;;;;;;7.78;1.55;;;;;;;13.91;80.01;99668.91;5032792;28;20641;-86
2022/10/26 02:41:29;;;;;;;4.70;1.30;;;;;;;13.91;80.12;99666.19;5032166;28;20028;-83
2022/10/26 02:44:18;;;;;;;9.48;1.80;;;;;;;13.92;80.27;99665.06;5032356;28;20117;-87
2022/10/26 02:46:44;;;;;;;6.53;2.47;;;;;;;13.97;80.06;99662.28;5019677;28;20037;-87
2022/10/26 02:49:10;;;;;;;10.68;1.40;;;;;;;14.07;79.96;99653.94;5031916;28;20029;-86
2022/10/26 02:51:43;;;;;;;4.03;1.15;;;;;;;14.06;79.67;99652.28;5032217;28;20025;-88
2022/10/26 02:54:24;;;;;;;4.60;1.17;;;;;;;14.08;79.58;99652.00;5031662;28;20045;-84
2022/10/26 02:57:03;;;;;;;5.35;1.60;;;;;;;13.96;79.99;99646.91;5031798;28;20099;-88
2022/10/26 02:59:34;;;;;;;7.60;1.80;;;;;;;13.97;80.16;99643.88;5032235;28;20030;-88
2022/10/26 03:02:00;;;;;;;4.13;1.42;;;;;;;14.14;79.33;99642.63;5031419;28;20030;-89
2022/10/26 03:04:33;;;;;;;3.15;1.25;;;;;;;14.09;79.38;99639.94;5031849;28;20040;-89
2022/10/26 03:06:58;;;;;;;9.55;1.80;;;;;;;14.15;79.49;99643.44;5031956;28;20049;-84
2022/10/26 03:09:24;;;;;;;3.63;1.30;;;;;;;14.01;79.68;99644.16;5031165;28;20060;-87
2022/10/26 03:11:49;;;;;;;6.18;2.05;;;;;;;14.12;79.59;99642.91;5032179;28;20065;-84
2022/10/26 03:14:15;;;;;;;5.40;1.20;;;;;;;14.10;79.96;99641.56;5031158;28;20102;-89
2022/10/26 03:16:40;;;;;;;3.07;1.17;;;;;;;14.24;79.16;99638.94;5031459;28;20026;-87
2022/10/26 03:19:05;;;;;;;2.97;1.13;;;;;;;14.07;79.82;99640.25;5031651;28;20331;-87
2022/10/26 03:21:30;;;;;;;5.67;1.57;;;;;;;14.08;80.08;99646.53;5031342;28;20283;-84
2022/10/26 03:23:56;;;;;;;5.10;2.03;;;;;;;14.19;79.40;99647.22;5031309;28;20666;-85
2022/10/26 03:26:21;;;;;;;7.33;1.23;;;;;;;14.29;79.08;99647.13;5031994;28;20263;-85
2022/10/26 03:28:46;;;;;;;2.40;0.93;;;;;;;14.25;79.22;99651.53;5031531;28;20247;-88
2022/10/26 03:31:11;;;;;;;3.90;1.27;;;;;;;14.27;79.43;99646.59;5031322;28;20258;-83
2022/10/26 03:33:37;;;;;;;3.63;1.03;;;;;;;14.06;80.29;99643.25;5030889;28;20395;-84
2022/10/26 03:36:02;;;;;;;5.22;1.50;;;;;;;14.10;80.46;99639.66;5031497;28;20270;-86
2022/10/26 03:38:28;;;;;;;2.72;0.90;;;;;;;14.26;79.65;99644.94;5031434;28;20308;-84
2022/10/26 03:40:53;;;;;;;4.28;1.45;;;;;;;14.17;80.31;99641.22;5031332;28;20112;-84
2022/10/26 03:43:18;;;;;;;11.52;1.40;;;;;;;14.29;79.45;99627.09;5030845;28;20075;-82
2022/10/26 03:45:45;;;;;;;3.17;0.90;;;;;;;14.29;79.83;99633.41;5031354;28;20180;-86
2022/10/26 03:48:11;;;;;;;13.40;2.83;;;;;;;14.32;79.27;99632.81;5030962;28;20313;-84
2022/10/26 03:50:36;;;;;;;5.18;1.35;;;;;;;14.33;79.12;99637.19;5026085;28;20072;-84
2022/10/26 03:53:01;;;;;;;3.42;1.77;;;;;;;14.26;79.19;99628.50;5021984;28;20108;-86
2022/10/26 03:55:27;;;;;;;7.82;1.63;;;;;;;14.29;78.92;99633.41;5019808;28;20029;-82
2022/10/26 03:57:52;;;;;;;5.90;1.23;;;;;;;14.38;78.66;99632.75;5029704;28;20033;-84
2022/10/26 04:00:17;;;;;;;2.90;0.82;;;;;;;14.40;78.84;99616.81;5029015;28;20755;-89
2022/10/26 04:02:48;;;;;;;3.63;1.52;;;;;;;14.23;79.04;99629.09;5029523;28;20043;-87
2022/10/26 04:05:15;;;;;;;3.17;1.20;;;;;;;14.24;79.18;99617.00;5030768;28;20486;-87
2022/10/26 04:07:41;;;;;;;4.70;1.52;;;;;;;14.24;79.23;99625.22;5030788;28;20088;-84
2022/10/26 04:10:06;;;;;;;9.50;1.52;;;;;;;14.33;78.69;99626.22;5030469;28;20453;-86
2022/10/26 04:12:35;;;;;;;13.20;3.25;;;;;;;14.33;78.62;99628.97;5029799;28;20037;-88
2022/10/26 04:15:00;;;;;;;6.18;1.48;;;;;;;14.24;78.41;99626.03;5030550;28;20668;-84
2022/10/26 04:17:26;;;;;;;6.43;0.90;;;;;;;14.33;78.11;99628.16;5030577;28;20160;-88
2022/10/26 04:19:51;;;;;;;2.03;0.93;;;;;;;14.24;78.07;99626.03;5029966;28;20251;-83
2022/10/26 04:22:16;;;;;;;3.63;0.90;;;;;;;14.32;78.34;99621.84;5029630;28;20279;-85
2022/10/26 04:24:41;;;;;;;1.97;0.93;;;;;;;14.32;78.11;99627.31;5030283;28;20029;-81
2022/10/26 04:27:07;;;;;;;3.60;0.80;;;;;;;14.34;77.69;99627.84;5030639;28;20258;-88
2022/10/26 04:29:32;;;;;;;5.13;0.80;;;;;;;14.35;77.65;99636.91;5030555;28;20258;-87
2022/10/26 04:31:57;;;;;;;6.00;0.93;;;;;;;14.45;77.12;99635.94;5030423;28;20397;-85
2022/10/26 04:34:23;;;;;;;4.05;1.00;;;;;;;14.44;77.23;99640.59;5029944;28;20258;-87
2022/10/26 04:36:48;;;;;;;3.30;1.00;;;;;;;14.45;77.00;99641.44;5030678;28;20036;-88
2022/10/26 04:39:13;;;;;;;4.88;1.50;;;;;;;14.44;77.11;99640.59;5030611;28;20088;-85
2022/10/26 04:41:38;;;;;;;4.67;0.93;;;;;;;14.50;76.84;99644.13;5030409;28;20498;-86
2022/10/26 04:44:04;;;;;;;7.57;2.15;;;;;;;14.51;76.99;99645.75;5029967;28;20259;-86
2022/10/26 04:46:29;;;;;;;2.25;1.02;;;;;;;14.54;76.67;99645.13;5030382;28;20604;-86
2022/10/26 04:48:54;;;;;;;4.80;1.25;;;;;;;14.49;76.55;99639.72;5030197;28;20033;-85
2022/10/26 04:51:19;;;;;;;1.17;0.60;;;;;;;14.56;76.39;99642.91;5030225;28;20492;-89
2022/10/26 04:53:45;;;;;;;10.77;2.10;;;;;;;14.57;75.46;99646.47;5029538;28;20258;-80
2022/10/26 04:56:10;;;;;;;16.13;2.10;;;;;;;14.54;75.76;99639.66;5029821;28;20336;-82
2022/10/26 04:58:35;;;;;;;2.87;0.90;;;;;;;14.45;75.83;99639.50;5030333;28;20263;-84
2022/10/26 05:01:01;;;;;;;4.37;1.87;;;;;;;14.58;75.23;99632.47;5029664;28;20281;-84
2022/10/26 05:03:27;;;;;;;3.70;0.70;;;;;;;14.61;75.28;99633.81;5029300;28;20262;-84
2022/10/26 05:05:52;;;;;;;9.23;0.80;;;;;;;14.54;74.84;99638.84;5030351;28;20507;-85
2022/10/26 05:08:17;;;;;;;3.88;1.17;;;;;;;14.49;74.91;99637.00;5029970;28;20305;-84
2022/10/26 05:10:47;;;;;;;3.67;0.90;;;;;;;14.57;74.79;99628.09;5029359;28;20029;-84
2022/10/26 05:13:13;;;;;;;2.15;0.95;;;;;;;14.52;74.69;99624.63;5029986;28;20064;-85
2022/10/26 05:15:38;;;;;;;4.63;0.90;;;;;;;14.61;74.12;99628.31;5030068;28;20076;-83
2022/10/26 05:18:04;;;;;;;2.93;0.93;;;;;;;14.59;74.32;99625.88;5030031;28;20257;-81
2022/10/26 05:20:32;;;;;;;4.70;1.45;;;;;;;14.52;74.21;99628.16;5029407;28;20278;-83
2022/10/26 05:23:02;;;;;;;12.85;1.10;;;;;;;14.61;74.48;99631.06;5029435;28;20060;-85
2022/10/26 05:25:28;;;;;;;6.78;1.20;;;;;;;14.50;74.78;99635.06;5029606;28;20040;-84
2022/10/26 05:28:03;;;;;;;5.38;1.73;;;;;;;14.51;74.60;99632.03;5030041;28;20029;-84
2022/10/26 05:30:29;;;;;;;2.85;0.73;;;;;;;14.57;74.64;99628.09;5029874;28;20529;-81
2022/10/26 05:32:55;;;;;;;1.60;0.65;;;;;;;14.56;74.52;99637.44;5031809;28;20029;-87
2022/10/26 05:35:20;;;;;;;6.57;1.20;;;;;;;14.46;75.10;99637.59;5033583;28;20037;-86
2022/10/26 05:37:46;;;;;;;1.88;0.70;;;;;;;14.57;74.41;99627.28;5033527;28;20468;-85
2022/10/26 05:40:11;;;;;;;6.10;1.43;;;;;;;14.59;74.40;99627.81;5033482;28;20046;-82
2022/10/26 05:42:36;;;;;;;2.72;1.13;;;;;;;14.52;74.60;99628.16;5033502;28;20815;-85
2022/10/26 05:45:02;;;;;;;3.05;1.35;;;;;;;14.57;74.69;99627.28;5033751;28;20478;-86
2022/10/26 05:47:27;;;;;;;2.22;0.90;;;;;;;14.55;74.52;99633.06;5034191;28;20033;-89
2022/10/26 05:49:52;;;;;;;5.18;0.93;;;;;;;14.57;74.50;99639.06;5033988;28;20116;-85
2022/10/26 05:52:17;;;;;;;21.70;1.77;;;;;;;14.63;74.28;99630.75;5034747;28;20082;-89
2022/10/26 05:54:43;;;;;;;6.47;0.90;;;;;;;14.36;74.90;99641.25;5033784;28;20663;-82
2022/10/26 05:57:12;;;;;;;4.97;1.20;;;;;;;14.46;74.85;99627.41;5032780;28;20332;-84
2022/10/26 05:59:37;;;;;;;1.70;0.90;;;;;;;14.53;74.52;99637.22;5029511;28;20409;-86
2022/10/26 06:02:08;;;;;;;5.28;1.15;;;;;;;14.47;74.66;99634.53;5013947;28;20117;-85
2022/10/26 06:04:42;;;;;;;2.08;0.98;;;;;;;14.48;74.68;99646.34;5032383;28;20113;-81
2022/10/26 06:07:11;;;;;;;;;;;;;;;14.41;75.08;99640.38;5033748;28;20475;-86
2022/10/26 06:09:37;;;;;;;4.68;0.90;;;;;;;14.54;74.24;99639.66;5033271;28;20443;-86
2022/10/26 06:12:03;;;;;;;7.10;0.85;;;;;;;14.29;75.01;99638.06;5032902;28;20104;-85
2022/10/26 06:14:29;;;;;;;2.13;0.80;;;;;;;14.43;74.52;99643.66;5033128;28;20286;-86
2022/10/26 06:17:02;;;;;;;5.25;1.00;;;;;;;14.42;74.32;99644.78;5033400;28;20112;-86
2022/10/26 06:19:59;;;;;;;3.35;1.00;;;;;;;14.45;74.01;99634.03;5032899;28;20025;-86
2022/10/26 06:22:49;;;;;;;4.45;1.02;;;;;;;14.39;73.92;99637.94;5025950;28;20033;-87
2022/10/26 06:25:23;;;;;;;6.18;1.02;;;;;;;14.46;74.17;99643.06;5032706;28;20025;-86
2022/10/26 06:27:51;;;;;;;;;;;;;;;14.52;73.91;99641.88;5033482;28;20041;-88
2022/10/26 06:30:19;;;;;;;5.15;1.58;;;;;;;14.60;73.68;99643.16;5032909;28;19913;-87
2022/10/26 06:32:45;;;;;;;6.30;0.82;;;;;;;14.62;73.67;99645.59;5032378;28;20049;-85
2022/10/26 06:35:23;;;;;;;3.15;1.05;;;;;;;14.57;73.95;99641.81;5032404;28;20029;-89
2022/10/26 06:37:50;;;;;;;2.55;0.50;;;;;;;14.65;73.33;99645.00;5032859;28;20110;-88
2022/10/26 06:40:16;;;;;;;1.58;0.60;;;;;;;14.72;73.17;99650.97;5032756;28;20021;-84
2022/10/26 06:42:42;;;;;;;1.92;0.77;;;;;;;14.57;73.44;99643.75;5032348;28;20072;-86
2022/10/26 06:45:15;;;;;;;5.90;0.88;;;;;;;14.71;73.00;99650.13;5031645;28;20065;-86
2022/10/26 06:48:03;;;;;;;11.40;1.42;;;;;;;14.75;72.96;99647.63;5032326;28;20098;-85
2022/10/26 06:50:39;;;;;;;1.98;0.50;;;;;;;14.80;72.85;99647.56;5033010;28;20073;-87
2022/10/26 06:53:26;;;;;;;5.93;0.73;;;;;;;14.80;72.72;99646.72;5029940;28;20088;-84
2022/10/26 06:55:52;;;;;;;5.20;0.68;;;;;;;14.86;72.64;99642.00;5032543;28;20059;-86
2022/10/26 06:58:20;;;;;;;4.53;1.40;;;;;;;14.88;72.44;99645.28;5032095;28;20109;-85
2022/10/26 07:00:49;;;;;;;2.78;1.02;;;;;;;14.92;72.43;99649.06;5032315;28;20025;-87
2022/10/26 07:03:14;;;;;;;1.67;0.70;;;;;;;14.86;72.72;99653.00;5031845;28;20099;-86
2022/10/26 07:05:40;;;;;;;2.03;0.77;;;;;;;14.85;72.76;99643.13;5032266;28;20536;-85
2022/10/26 07:08:05;;;;;;;1.85;0.60;;;;;;;14.92;71.73;99654.56;5032492;28;20068;-86
2022/10/26 07:10:34;;;;;;;6.90;1.20;;;;;;;14.97;71.94;99650.91;5032400;28;20049;-83
2022/10/26 07:12:59;;;;;;;4.03;0.82;;;;;;;14.97;72.01;99659.16;5026520;28;20038;-87
2022/10/26 07:15:24;;;;;;;1.85;0.50;;;;;;;14.96;71.96;99658.34;5012288;28;20033;-84
2022/10/26 07:17:50;;;;;;;1.45;0.50;;;;;;;15.10;71.27;99657.56;5014339;28;20021;-85
2022/10/26 07:20:18;;;;;;;5.28;0.70;;;;;;;15.08;71.63;99657.88;5027621;28;20309;-87
2022/10/26 07:22:44;;;;;;;3.08;1.05;;;;;;;15.17;71.35;99664.31;5031009;28;20065;-87
2022/10/26 07:25:11;;;;;;;3.70;0.65;;;;;;;15.21;71.12;99659.06;5020130;28;20061;-85
2022/10/26 07:27:36;;;;;;;3.10;1.27;;;;;;;15.16;71.06;99672.88;5012099;28;20050;-88
2022/10/26 07:30:03;;;;;;;5.47;0.55;;;;;;;15.09;71.32;99662.28;5011601;28;20141;-79
2022/10/26 07:32:29;;;;;;;4.78;0.55;;;;;;;15.27;70.33;99668.88;5025249;28;20116;-88
2022/10/26 07:34:54;;;;;;;3.17;0.63;;;;;;;15.23;70.00;99665.09;5031350;28;20036;-87
2022/10/26 07:37:19;;;;;;;2.17;0.38;;;;;;;15.36;69.74;99665.41;5031704;28;20025;-86
2022/10/26 07:39:45;;;;;;;1.70;0.57;;;;;;;15.35;69.62;99672.03;5031711;28;20538;-88
2022/10/26 07:42:10;;;;;;;3.83;0.77;;;;;;;15.34;69.70;99664.88;5031267;28;20282;-87
2022/10/26 07:44:35;;;;;;;2.00;0.83;;;;;;;15.40;69.65;99669.19;5031246;28;20274;-86
2022/10/26 07:47:00;;;;;;;2.60;0.70;;;;;;;15.36;69.45;99673.66;5031266;28;20309;-86
2022/10/26 07:49:25;;;;;;;7.30;1.13;;;;;;;15.37;69.66;99675.28;5031047;28;20724;-86
2022/10/26 07:51:51;;;;;;;4.27;1.17;;;;;;;15.36;69.96;99673.66;5030866;28;20044;-86
2022/10/26 07:54:16;;;;;;;4.55;1.25;;;;;;;15.39;69.86;99673.06;5029321;28;20278;-85
2022/10/26 07:56:41;;;;;;;2.53;0.80;;;;;;;15.39;70.14;99675.81;5031188;28;20029;-86
2022/10/26 07:59:07;;;;;;;2.00;0.50;;;;;;;15.36;70.34;99668.16;5031037;28;20766;-82
2022/10/26 08:01:32;;;;;;;4.57;1.05;;;;;;;15.36;70.17;99666.22;5031111;28;20033;-84
2022/10/26 08:03:58;;;;;;;2.08;0.75;;;;;;;15.33;70.70;99668.75;5024866;28;20277;-87
2022/10/26 08:06:23;;;;;;;2.77;0.70;;;;;;;15.38;70.25;99676.91;5020086;28;20144;-80
2022/10/26 08:08:49;;;;;;;1.88;1.08;;;;;;;15.35;70.37;99678.34;5022098;28;20744;-85
2022/10/26 08:11:15;;;;;;;3.78;1.15;;;;;;;15.29;71.11;99676.78;5025037;28;20395;-85
2022/10/26 08:13:41;;;;;;;3.33;1.27;;;;;;;15.34;70.98;99679.44;5028340;28;20052;-85
2022/10/26 08:16:06;;;;;;;7.43;1.50;;;;;;;15.18;71.92;99684.38;5030804;28;20029;-82
2022/10/26 08:18:31;;;;;;;2.13;0.98;;;;;;;15.18;72.34;99689.84;5030710;28;20030;-82
2022/10/26 08:21:06;;;;;;;5.30;1.00;;;;;;;15.16;72.88;99684.66;5031116;28;20021;-85
2022/10/26 08:23:32;;;;;;;6.93;1.42;;;;;;;15.20;72.87;99682.13;5030692;28;20033;-86
2022/10/26 08:25:58;;;;;;;4.85;0.93;;;;;;;15.21;73.04;99667.31;5030864;28;20455;-89
2022/10/26 08:28:24;;;;;;;7.50;1.23;;;;;;;15.26;73.10;99675.44;5030330;28;20033;-88
2022/10/26 08:30:49;;;;;;;2.67;1.70;;;;;;;15.47;72.74;99666.06;5030216;28;20100;-86
2022/10/26 08:33:15;;;;;;;3.87;1.37;;;;;;;15.59;72.82;99662.84;5024708;28;20398;-86
2022/10/26 08:35:40;;;;;;;10.73;1.63;;;;;;;15.50;72.08;99663.53;5030723;28;20325;-88
2022/10/26 08:38:05;;;;;;;4.37;0.90;;;;;;;15.54;72.47;99663.72;5031096;28;20338;-89
2022/10/26 08:40:32;;;;;;;2.13;0.70;;;;;;;15.46;72.63;99662.50;5030638;28;20278;-85
2022/10/26 08:43:06;;;;;;;8.52;1.10;;;;;;;15.55;72.61;99681.03;5030919;28;20273;-87
2022/10/26 08:45:44;;;;;;;2.92;0.95;;;;;;;15.60;72.86;99683.72;5030642;28;20033;-81
2022/10/26 08:48:18;;;;;;;8.77;1.98;;;;;;;15.71;72.76;99685.16;5031092;28;20053;-84
2022/10/26 08:50:52;;;;;;;6.78;2.10;;;;;;;15.80;72.79;99681.72;5031878;28;20067;-84
2022/10/26 08:53:40;;;;;;;2.88;1.23;;;;;;;15.79;72.80;99702.06;5029875;28;20068;-85
2022/10/26 08:56:13;;;;;;;4.45;1.20;;;;;;;15.87;72.83;99704.94;5030538;28;20048;-83
2022/10/26 08:58:40;;;;;;;;;;;;;;;15.85;72.70;99707.19;5031119;28;20204;-87
2022/10/26 09:01:07;;;;;;;6.85;1.60;;;;;;;15.92;72.33;99723.28;5030189;28;19913;-84
2022/10/26 09:03:33;;;;;;;5.60;1.05;;;;;;;15.74;72.94;99727.72;5029792;28;20434;-86
2022/10/26 09:06:07;;;;;;;4.45;1.58;;;;;;;15.86;72.40;99714.31;5030730;28;20037;-86
2022/10/26 09:08:55;;;;;;;2.67;1.13;;;;;;;15.87;72.67;99728.88;5017275;28;20045;-84
2022/10/26 09:11:47;;;;;;;7.53;1.63;;;;;;;15.88;72.74;99716.78;5017077;28;20030;-83
2022/10/26 09:14:20;;;;;;;4.38;1.92;;;;;;;15.84;72.67;99718.50;5015640;28;20029;-81
2022/10/26 09:17:15;;;;;;;2.80;1.30;;;;;;;16.02;73.01;99710.50;5016770;28;20030;-86
2022/10/26 09:20:25;;;;;;;2.17;0.95;;;;;;;15.97;73.29;99716.88;5017080;28;20041;-87
2022/10/26 09:23:10;;;;;;;7.38;1.48;;;;;;;15.99;73.49;99717.38;5016682;28;20033;-86
2022/10/26 09:25:39;;;;;;;9.07;1.88;;;;;;;15.86;73.54;99728.03;5017307;28;20045;-84
2022/10/26 09:28:07;;;;;;;14.02;1.80;;;;;;;16.10;72.98;99729.06;5017191;28;20053;-86
2022/10/26 09:30:34;;;;;;;4.05;1.63;;;;;;;16.07;73.31;99746.16;5016768;28;20040;-86
2022/10/26 09:33:15;;;;;;;11.02;1.58;;;;;;;16.08;73.91;99743.13;5016488;28;20038;-83
2022/10/26 09:35:51;;;;;;;10.75;1.77;;;;;;;16.15;74.01;99744.66;5015751;28;20549;-87
2022/10/26 09:38:54;;;;;;;6.78;1.67;;;;;;;16.22;73.61;99754.13;5016869;28;20037;-84
2022/10/26 09:41:40;;;;;;;4.47;1.88;;;;;;;16.25;73.79;99751.91;5016841;28;20042;-83
2022/10/26 09:44:19;;;;;;;5.82;1.48;;;;;;;16.22;73.54;99758.81;5016870;28;20398;-85
2022/10/26 09:47:05;;;;;;;6.35;1.40;;;;;;;16.24;73.64;99772.25;5017619;28;20073;-85
2022/10/26 09:49:40;;;;;;;15.98;1.88;;;;;;;16.31;73.38;99789.19;5016838;28;20030;-85
2022/10/26 09:52:06;;;;;;;5.30;1.50;;;;;;;16.09;73.57;99793.41;5016121;28;20035;-84
2022/10/26 09:54:31;;;;;;;3.28;1.10;;;;;;;16.21;73.63;99807.50;5016521;28;20030;-83
2022/10/26 09:57:01;;;;;;;7.97;2.27;;;;;;;16.24;73.42;99799.75;5006189;28;20087;-86
2022/10/26 09:59:26;;;;;;;4.60;1.55;;;;;;;16.31;73.70;99806.50;4996886;28;20296;-85
2022/10/26 10:01:52;;;;;;;5.80;1.35;;;;;;;16.37;73.92;99809.16;4996959;28;20062;-84
2022/10/26 10:04:23;;;;;;;7.80;2.42;;;;;;;16.45;72.89;99805.72;5015113;28;20471;-85
2022/10/26 10:06:51;;;;;;;8.40;2.08;;;;;;;16.34;73.46;99821.59;5023019;28;20073;-84
2022/10/26 10:09:22;;;;;;;4.07;1.50;;;;;;;16.42;73.59;99823.66;5036759;28;20036;-85
2022/10/26 10:11:54;;;;;;;4.72;1.45;;;;;;;16.51;73.30;99822.94;5036841;28;20076;-84
2022/10/26 10:14:22;;;;;;;4.95;1.73;;;;;;;16.51;73.20;99829.28;5035932;28;20041;-86
2022/10/26 10:16:53;;;;;;;6.15;1.63;;;;;;;16.65;73.40;99826.53;5036888;28;20117;-88
2022/10/26 10:19:27;;;;;;;5.43;1.70;;;;;;;16.68;73.02;99831.41;5032500;28;20398;-89
2022/10/26 10:21:58;;;;;;;2.58;1.45;;;;;;;16.75;73.19;99833.78;5033743;28;20029;-86
2022/10/26 10:24:35;;;;;;;2.50;1.15;;;;;;;17.03;72.54;99836.53;5014055;28;20042;-88
2022/10/26 10:27:15;;;;;;;5.03;2.08;;;;;;;17.24;72.31;99830.63;5013994;28;20038;-86
2022/10/26 10:29:45;;;;;;;11.23;1.92;;;;;;;17.13;72.24;99835.53;5013471;28;20030;-84
2022/10/26 10:32:29;;;;;;;4.43;2.03;;;;;;;17.32;72.25;99840.09;5014968;28;20026;-87
2022/10/26 10:34:56;;;;;;;4.70;1.40;;;;;;;17.25;71.56;99837.75;5032890;28;20120;-84
2022/10/26 10:37:21;;;;;;;4.90;1.58;;;;;;;17.41;71.81;99836.63;5033163;28;20044;-85
2022/10/26 10:39:47;;;;;;;9.47;1.93;;;;;;;17.38;71.89;99844.38;5033269;28;20453;-86
2022/10/26 10:42:28;;;;;;;5.05;1.83;;;;;;;17.50;72.22;99843.00;5032598;28;20279;-86
2022/10/26 10:44:56;;;;;;;6.28;1.75;;;;;;;17.64;71.94;99842.97;5033191;28;20033;-86
2022/10/26 10:47:35;;;;;;;4.35;2.20;;;;;;;17.53;71.50;99842.41;5032691;28;20520;-84
2022/10/26 10:50:06;;;;;;;5.25;2.05;;;;;;;17.57;71.81;99848.94;5032803;28;20030;-85
2022/10/26 10:52:33;;;;;;;5.72;1.50;;;;;;;17.43;71.59;99846.19;5028518;28;20044;-78
2022/10/26 10:55:07;;;;;;;6.65;1.85;;;;;;;17.60;71.47;99853.81;5033294;28;20037;-90
2022/10/26 10:57:50;;;;;;;4.90;2.20;;;;;;;17.47;71.66;99847.19;5052958;28;20028;-86
2022/10/26 11:00:17;;;;;;;7.85;1.75;;;;;;;17.67;71.41;99852.56;5052784;28;20462;-87
2022/10/26 11:03:13;;;;;;;5.72;2.17;;;;;;;17.68;71.34;99851.44;5026563;28;20045;-89
2022/10/26 11:05:59;;;;;;;9.35;2.35;;;;;;;17.85;71.14;99859.06;5032304;28;20585;-84
2022/10/26 11:08:43;;;;;;;7.30;1.95;;;;;;;17.74;71.98;99866.72;5028384;28;20466;-90
2022/10/26 11:11:17;;;;;;;7.05;2.30;;;;;;;17.87;71.52;99873.34;5027985;28;20052;-85
2022/10/26 11:13:51;;;;;;;6.95;2.10;;;;;;;17.98;71.53;99876.66;5032265;28;20041;-90
2022/10/26 11:16:31;;;;;;;12.25;2.45;;;;;;;18.11;71.24;99876.91;5032221;28;20112;-86
2022/10/26 11:19:04;;;;;;;6.45;1.60;;;;;;;18.18;71.31;99877.34;5032431;28;20030;-86
2022/10/26 11:21:36;;;;;;;5.30;1.63;;;;;;;18.09;70.89;99886.34;5032369;28;20089;-86
2022/10/26 11:24:19;;;;;;;5.30;2.42;;;;;;;18.00;71.52;99887.41;5031580;28;20033;-84
2022/10/26 11:27:23;;;;;;;6.85;2.50;;;;;;;17.88;71.32;99894.25;5032649;28;20370;-86
2022/10/26 11:29:58;;;;;;;8.43;2.22;;;;;;;18.02;71.50;99883.19;4948471;28;20039;-83
2022/10/26 11:32:33;;;;;;;8.43;1.80;;;;;;;18.05;71.48;99888.09;5007768;28;20526;-86
2022/10/26 11:35:11;;;;;;;5.95;2.28;;;;;;;18.25;70.66;99899.78;5032004;28;20033;-86
2022/10/26 11:38:14;;;;;;;12.98;2.30;;;;;;;18.34;70.18;99890.75;5031830;28;20037;-84
2022/10/26 11:40:57;;;;;;;11.43;2.70;;;;;;;18.20;70.16;99900.72;5032886;28;20107;-85
2022/10/26 11:43:38;;;;;;;4.73;2.30;;;;;;;18.17;70.34;99893.06;5032924;28;20121;-86
2022/10/26 11:46:16;;;;;;;10.05;2.85;;;;;;;18.36;70.31;99899.53;5033236;28;20326;-85
2022/10/26 11:48:59;;;;;;;5.70;2.13;;;;;;;18.19;71.31;99895.50;5031603;28;20041;-86
2022/10/26 11:51:27;;;;;;;2.53;1.40;;;;;;;18.19;71.22;99899.09;5032256;28;20029;-88